Time;durP1;ratioP1;P1;durP2;ratioP2;P2;SDS_P1;SDS_P2;PMS_P1;PMS_P2;Temp;Humidity;BMP_temperature;BMP_pressure;BME280_temperature;BME280_humidity;BME280_pressure;Samples;Min_cycle;Max_cycle;Signal;HPM_P1;HPM_P2
2021/10/10 00:04:29;;;;;;;37.20;15.73;;;;;;;6.59;66.56;102469.75;5073057;57;21159;-79
2021/10/10 00:09:35;;;;;;;25.30;14.00;;;;;;;6.55;66.32;102468.14;5061401;57;21218;-78
2021/10/10 00:14:41;;;;;;;28.97;15.33;;;;;;;6.49;66.51;102466.99;5062166;57;21468;-81
2021/10/10 00:19:47;;;;;;;27.77;15.90;;;;;;;6.45;66.56;102460.09;5064151;57;22242;-78
2021/10/10 00:24:53;;;;;;;33.07;16.67;;;;;;;6.33;66.56;102455.61;5077607;57;21159;-82
2021/10/10 00:30:00;;;;;;;32.53;17.03;;;;;;;6.21;66.68;102460.36;5083745;57;21562;-79
2021/10/10 00:35:09;;;;;;;24.10;15.07;;;;;;;6.12;66.90;102456.21;5061157;58;21549;-79
2021/10/10 00:40:16;;;;;;;32.07;15.30;;;;;;;6.03;67.00;102455.62;5061463;58;21163;-81
2021/10/10 00:45:21;;;;;;;26.93;15.17;;;;;;;5.89;67.19;102448.98;5061343;58;22261;-77
2021/10/10 00:50:29;;;;;;;27.57;14.07;;;;;;;5.79;67.22;102444.87;4990594;58;21210;-79
2021/10/10 00:55:36;;;;;;;24.57;15.30;;;;;;;5.58;67.18;102441.03;4919330;60;21219;-76
2021/10/10 01:00:41;;;;;;;28.13;15.07;;;;;;;5.49;67.77;102450.47;4990678;59;22194;-78
2021/10/10 01:05:48;;;;;;;28.27;14.47;;;;;;;5.49;68.03;102449.16;4995383;59;22122;-77
2021/10/10 01:10:54;;;;;;;27.17;14.53;;;;;;;5.50;67.89;102444.30;4993360;59;21213;-76
2021/10/10 01:16:00;;;;;;;32.93;14.23;;;;;;;5.51;68.13;102439.91;4998052;58;22186;-79
2021/10/10 01:21:06;;;;;;;31.33;16.13;;;;;;;5.48;68.20;102434.77;4999772;57;21111;-80
2021/10/10 01:26:12;;;;;;;26.73;15.67;;;;;;;5.44;68.37;102436.59;5069475;58;21165;-80
2021/10/10 01:31:18;;;;;;;30.87;16.17;;;;;;;5.37;68.36;102428.45;5069573;58;21168;-78
2021/10/10 01:36:23;;;;;;;35.00;15.27;;;;;;;5.35;68.73;102425.48;5069549;58;21160;-79
2021/10/10 01:41:29;;;;;;;32.90;15.70;;;;;;;5.33;68.77;102418.97;5069445;58;21164;-77
2021/10/10 01:46:35;;;;;;;33.70;17.77;;;;;;;5.21;68.12;102412.69;5069394;58;22142;-81
2021/10/10 01:51:43;;;;;;;38.40;19.30;;;;;;;5.03;68.43;102410.09;5072666;57;21100;-80
2021/10/10 01:56:48;;;;;;;32.57;18.60;;;;;;;5.04;68.94;102407.86;5073784;57;21175;-75
2021/10/10 02:01:54;;;;;;;31.77;16.87;;;;;;;5.05;69.02;102406.96;5073596;57;21092;-80
2021/10/10 02:06:59;;;;;;;34.20;17.80;;;;;;;4.97;68.63;102404.99;5073718;57;21163;-79
2021/10/10 02:12:05;;;;;;;32.87;17.10;;;;;;;4.70;68.27;102401.27;5073822;57;21163;-80
2021/10/10 02:17:12;;;;;;;35.47;18.00;;;;;;;4.74;69.02;102404.21;5073638;57;21108;-79
2021/10/10 02:22:17;;;;;;;44.37;20.03;;;;;;;4.76;69.15;102395.86;5073500;57;22033;-76
2021/10/10 02:27:23;;;;;;;40.10;18.90;;;;;;;4.81;69.49;102394.01;5073594;57;21186;-80
2021/10/10 02:32:28;;;;;;;37.07;19.40;;;;;;;4.83;69.67;102393.98;5073569;57;21688;-79
2021/10/10 02:37:35;;;;;;;34.90;20.07;;;;;;;4.84;69.69;102390.02;5073589;57;21234;-78
2021/10/10 02:42:41;;;;;;;38.87;21.03;;;;;;;4.83;69.56;102390.05;5073533;57;22298;-77
2021/10/10 02:47:47;;;;;;;37.30;20.17;;;;;;;4.85;69.64;102389.11;5073658;57;21189;-80
2021/10/10 02:52:55;;;;;;;34.27;19.60;;;;;;;4.84;69.52;102389.15;5059694;58;21211;-79
2021/10/10 02:58:01;;;;;;;39.57;21.47;;;;;;;4.78;69.43;102386.66;5059505;58;21166;-78
2021/10/10 03:03:07;;;;;;;40.33;20.00;;;;;;;4.72;69.52;102377.65;5059323;58;21163;-80
2021/10/10 03:08:12;;;;;;;42.63;21.63;;;;;;;4.70;69.40;102375.51;5059419;58;21537;-77
2021/10/10 03:13:18;;;;;;;34.93;18.93;;;;;;;4.60;69.06;102374.39;5059337;58;21182;-76
2021/10/10 03:18:24;;;;;;;37.80;18.93;;;;;;;4.57;69.20;102367.08;5059340;58;21201;-76
2021/10/10 03:23:31;;;;;;;48.17;22.20;;;;;;;4.40;68.83;102366.59;5061541;58;21182;-78
2021/10/10 03:28:36;;;;;;;47.10;21.97;;;;;;;4.35;69.57;102369.76;5101841;57;21171;-79
2021/10/10 03:33:42;;;;;;;41.63;22.83;;;;;;;4.19;69.54;102361.38;5101320;57;21515;-79
2021/10/10 03:38:48;;;;;;;47.07;23.00;;;;;;;4.14;69.81;102364.53;5103797;57;21701;-76
2021/10/10 03:43:54;;;;;;;45.03;23.20;;;;;;;4.10;70.31;102368.99;5102220;57;21186;-77
2021/10/10 03:49:00;;;;;;;46.93;22.07;;;;;;;4.00;69.82;102362.65;5107027;57;21553;-78
2021/10/10 03:54:45;;;;;;;35.33;19.70;;;;;;;4.02;70.26;102351.25;5126875;57;21470;-78
2021/10/10 03:59:21;;;;;;;41.48;21.48;;;;;;;4.14;70.50;102347.06;5119480;57;21235;-79
2021/10/10 04:04:30;;;;;;;44.30;22.97;;;;;;;4.23;70.71;102339.02;5127760;57;21127;-77
2021/10/10 04:09:34;;;;;;;46.43;24.10;;;;;;;4.27;70.48;102336.34;5132630;57;21179;-80
2021/10/10 04:14:39;;;;;;;42.53;22.40;;;;;;;4.28;70.53;102336.76;5134857;57;22128;-78
2021/10/10 04:19:45;;;;;;;42.57;22.37;;;;;;;4.24;70.19;102326.79;5133592;57;21513;-78
2021/10/10 04:24:51;;;;;;;42.20;21.63;;;;;;;4.14;70.23;102329.17;5133327;57;21228;-80
2021/10/10 04:29:57;;;;;;;38.97;20.43;;;;;;;4.08;70.23;102326.27;5133307;57;21171;-79
2021/10/10 04:35:03;;;;;;;45.83;20.90;;;;;;;3.97;70.03;102323.03;5133428;57;21167;-81
2021/10/10 04:40:10;;;;;;;43.47;20.47;;;;;;;4.00;70.22;102320.77;5133818;57;21180;-77
2021/10/10 04:45:16;;;;;;;50.10;24.23;;;;;;;4.01;70.16;102315.50;5135638;57;21554;-78
2021/10/10 04:50:21;;;;;;;55.60;25.40;;;;;;;3.95;70.30;102309.55;5136304;57;21156;-78
2021/10/10 04:55:27;;;;;;;53.93;24.70;;;;;;;3.94;70.61;102308.69;5135721;57;21531;-77
2021/10/10 05:00:33;;;;;;;51.33;25.43;;;;;;;3.93;70.75;102306.97;5136765;57;21163;-79
2021/10/10 05:05:41;;;;;;;52.40;24.30;;;;;;;3.90;70.80;102308.33;5136419;57;21143;-80
2021/10/10 05:10:46;;;;;;;54.60;24.00;;;;;;;3.89;70.56;102309.22;5133779;58;22137;-80
2021/10/10 05:15:52;;;;;;;68.07;25.27;;;;;;;3.89;70.58;102313.15;5135199;57;21194;-79
2021/10/10 05:20:57;;;;;;;46.73;24.23;;;;;;;3.91;70.75;102313.12;5136158;57;21159;-80
2021/10/10 05:26:03;;;;;;;48.50;25.53;;;;;;;3.91;70.97;102311.81;5107431;57;21193;-77
2021/10/10 05:31:09;;;;;;;55.73;24.40;;;;;;;3.89;70.93;102306.61;5072125;57;21183;-79
2021/10/10 05:36:14;;;;;;;45.10;23.60;;;;;;;3.81;70.98;102308.54;5073910;57;21097;-78
2021/10/10 05:41:21;;;;;;;49.37;22.67;;;;;;;3.79;71.23;102313.80;5072939;57;21163;-90
2021/10/10 05:46:27;;;;;;;48.83;23.43;;;;;;;3.80;71.15;102312.91;5062885;57;22070;-85
2021/10/10 05:51:33;;;;;;;52.00;24.87;;;;;;;3.77;71.69;102309.48;5059614;58;21139;-84
2021/10/10 05:56:39;;;;;;;49.93;24.17;;;;;;;3.88;72.85;102310.98;5057511;58;21135;-84
2021/10/10 06:01:44;;;;;;;50.60;24.80;;;;;;;4.09;73.52;102304.42;5063083;57;21614;-85
2021/10/10 06:06:50;;;;;;;49.10;24.23;;;;;;;4.28;73.81;102300.92;5063250;57;22105;-89
2021/10/10 06:11:56;;;;;;;43.97;25.00;;;;;;;4.45;74.17;102308.39;5060558;57;21179;-84
2021/10/10 06:17:02;;;;;;;83.17;35.10;;;;;;;4.69;74.26;102301.27;5060286;58;21152;-84
2021/10/10 06:22:08;;;;;;;86.83;37.43;;;;;;;4.75;73.96;102299.78;5061577;57;21159;-86
2021/10/10 06:27:15;;;;;;;71.53;35.17;;;;;;;4.84;74.18;102296.95;5100226;57;21227;-86
2021/10/10 06:32:21;;;;;;;57.03;28.13;;;;;;;5.01;75.23;102302.20;5132468;57;21088;-86
2021/10/10 06:37:26;;;;;;;55.00;27.33;;;;;;;5.13;75.07;102306.67;5135752;57;21159;-86
2021/10/10 06:42:32;;;;;;;52.50;27.23;;;;;;;5.23;75.63;102305.97;5136914;57;21493;-85
2021/10/10 06:47:38;;;;;;;80.20;39.30;;;;;;;5.45;76.31;102302.32;5137553;57;21218;-86
2021/10/10 06:52:44;;;;;;;67.23;35.17;;;;;;;5.85;77.28;102303.34;5132100;57;21178;-87
2021/10/10 06:57:49;;;;;;;73.00;34.37;;;;;;;6.19;77.50;102296.20;5135255;57;21182;-88
2021/10/10 07:02:55;;;;;;;80.53;34.77;;;;;;;6.62;77.79;102299.63;5131611;57;21131;-86
2021/10/10 07:08:00;;;;;;;73.00;36.27;;;;;;;7.03;77.19;102301.31;5136749;57;21146;-87
2021/10/10 07:13:06;;;;;;;70.97;32.40;;;;;;;7.33;76.97;102287.08;5138826;57;21177;-85
2021/10/10 07:18:11;;;;;;;173.60;68.63;;;;;;;7.66;76.82;102296.84;5138559;57;21148;-86
2021/10/10 07:23:33;;;;;;;103.63;51.00;;;;;;;7.93;76.14;102294.97;5136717;57;21108;-86
2021/10/10 07:28:33;;;;;;;62.10;31.63;;;;;;;8.18;75.53;102295.33;5086916;57;22079;-85
2021/10/10 07:33:40;;;;;;;52.80;27.73;;;;;;;8.37;75.21;102289.31;5069517;58;21180;-87
2021/10/10 07:38:46;;;;;;;57.80;31.47;;;;;;;8.63;74.13;102303.20;5055331;58;21215;-87
2021/10/10 07:43:52;;;;;;;43.93;25.30;;;;;;;8.79;73.59;102303.83;5042293;58;21238;-86
2021/10/10 07:48:58;;;;;;;85.13;36.47;;;;;;;9.01;74.05;102302.94;5044267;58;21581;-79
2021/10/10 07:54:05;;;;;;;60.13;27.10;;;;;;;9.20;73.77;102299.88;5051974;58;21189;-88
2021/10/10 07:59:11;;;;;;;47.10;24.67;;;;;;;9.47;73.51;102299.98;5053352;58;21577;-76
2021/10/10 08:04:17;;;;;;;46.33;24.23;;;;;;;9.72;72.77;102294.92;5044351;58;21255;-75
2021/10/10 08:09:24;;;;;;;47.20;23.33;;;;;;;9.98;72.62;102297.22;5040972;58;21199;-81
2021/10/10 08:14:30;;;;;;;37.40;18.53;;;;;;;10.25;72.02;102299.04;5046490;57;21120;-79
2021/10/10 08:19:35;;;;;;;31.13;18.43;;;;;;;10.45;70.57;102302.05;5062043;57;21187;-87
2021/10/10 08:24:41;;;;;;;32.40;17.23;;;;;;;10.60;69.12;102296.48;5065845;57;21223;-87
2021/10/10 08:29:47;;;;;;;27.23;15.73;;;;;;;10.73;67.96;102293.14;5064491;57;21483;-87
2021/10/10 08:34:53;;;;;;;23.20;13.90;;;;;;;10.89;66.94;102290.12;5059137;57;21260;-86
2021/10/10 08:39:58;;;;;;;27.57;16.63;;;;;;;11.04;65.92;102291.59;5063154;57;21184;-89
2021/10/10 08:45:13;;;;;;;23.50;12.80;;;;;;;11.12;65.44;102283.66;5062606;57;21144;-91
2021/10/10 08:50:29;;;;;;;21.97;13.33;;;;;;;11.31;65.20;102280.89;5053940;57;21199;-90
2021/10/10 08:55:35;;;;;;;23.67;12.97;;;;;;;11.52;64.99;102277.58;5064588;57;21203;-89
2021/10/10 09:01:02;;;;;;;19.77;11.97;;;;;;;11.62;63.33;102270.84;5065143;57;21233;-93
2021/10/10 09:06:17;;;;;;;26.27;12.87;;;;;;;11.80;63.60;102280.48;5056289;57;21251;-91
2021/10/10 09:11:23;;;;;;;21.93;12.93;;;;;;;11.98;64.02;102280.80;5053234;58;21267;-90
2021/10/10 09:16:36;;;;;;;18.83;11.40;;;;;;;12.20;62.44;102279.14;5050189;58;21767;-91
2021/10/10 09:21:41;;;;;;;19.55;11.90;;;;;;;12.30;60.52;102260.89;5058322;57;21168;-88
2021/10/10 09:27:06;;;;;;;20.23;11.03;;;;;;;12.42;61.09;102260.66;5046048;58;21239;-92
2021/10/10 09:32:24;;;;;;;22.33;13.60;;;;;;;12.54;59.36;102259.94;5084003;58;22106;-88
2021/10/10 09:37:42;;;;;;;14.83;10.40;;;;;;;12.59;58.27;102257.88;5035164;56;1138950;-91
2021/10/10 09:42:48;;;;;;;15.28;11.05;;;;;;;12.73;59.13;102252.61;5059988;56;1143125;-91
2021/10/10 09:47:59;;;;;;;13.97;8.97;;;;;;;12.81;58.66;102246.39;5115608;56;1143037;-89
2021/10/10 09:53:10;;;;;;;19.13;9.83;;;;;;;13.00;58.00;102241.67;5051509;56;1140836;-90
2021/10/10 09:58:44;;;;;;;15.33;9.30;;;;;;;13.14;55.97;102242.16;5028850;57;1140891;-90
2021/10/10 10:04:04;;;;;;;20.03;8.63;;;;;;;13.15;54.56;102237.26;5035815;57;1140784;-87
2021/10/10 10:09:12;;;;;;;14.53;9.83;;;;;;;13.18;55.96;102235.75;5107841;57;1140795;-86
2021/10/10 10:14:19;;;;;;;15.08;6.87;;;;;;;13.31;54.35;102228.73;5093552;56;1140774;-84
2021/10/10 10:19:27;;;;;;;13.30;7.87;;;;;;;13.43;51.95;102226.28;5093360;56;1141037;-88
2021/10/10 10:24:35;;;;;;;12.00;9.10;;;;;;;13.46;51.91;102221.60;5064923;56;1141152;-88
2021/10/10 10:29:44;;;;;;;13.23;6.73;;;;;;;13.56;51.96;102217.91;5012889;57;1141017;-89
2021/10/10 10:35:11;;;;;;;13.53;6.23;;;;;;;13.60;51.86;102212.75;5015149;57;1140812;-87
2021/10/10 10:40:27;;;;;;;15.47;7.57;;;;;;;13.70;50.40;102209.91;5015027;58;1140759;-90
2021/10/10 10:45:37;;;;;;;14.77;6.67;;;;;;;13.80;51.54;102199.53;5014937;58;1141378;-87
2021/10/10 10:50:44;;;;;;;10.13;5.60;;;;;;;13.94;50.09;102195.50;5063433;57;1140906;-88
2021/10/10 10:55:57;;;;;;;10.28;6.58;;;;;;;14.02;50.06;102195.87;5044904;57;1140967;-87
2021/10/10 11:01:06;;;;;;;5.83;4.53;;;;;;;14.11;49.97;102181.09;5008010;57;1140929;-87
2021/10/10 11:06:17;;;;;;;12.95;4.97;;;;;;;14.19;47.91;102182.79;4973744;58;1138861;-86
2021/10/10 11:11:25;;;;;;;7.33;4.97;;;;;;;14.18;46.54;102171.77;5043142;57;1140856;-87
2021/10/10 11:16:41;;;;;;;6.20;4.87;;;;;;;14.24;47.87;102167.34;5059687;57;1138830;-87
2021/10/10 11:21:46;;;;;;;9.50;5.73;;;;;;;14.35;47.97;102155.53;5056311;56;1138625;-86
2021/10/10 11:26:58;;;;;;;13.77;5.70;;;;;;;14.47;47.59;102148.55;5021724;57;1139095;-85
2021/10/10 11:32:01;;;;;;;10.03;5.97;;;;;;;14.57;45.80;102156.27;5040735;56;1140927;-89
2021/10/10 11:37:14;;;;;;;8.35;4.62;;;;;;;14.65;45.77;102144.15;5089435;56;1140877;-87
2021/10/10 11:42:20;;;;;;;11.43;6.50;;;;;;;14.74;46.95;102139.98;4848241;56;1148400;-86
2021/10/10 11:47:30;;;;;;;6.77;4.97;;;;;;;14.88;45.71;102134.55;4648065;56;1140969;-89
2021/10/10 11:52:43;;;;;;;9.70;6.15;;;;;;;15.04;46.18;102130.33;4611133;56;1138998;-87
2021/10/10 11:57:49;;;;;;;11.75;5.15;;;;;;;15.21;45.86;102123.32;4585934;57;1139044;-86
2021/10/10 12:03:10;;;;;;;8.44;5.70;;;;;;;15.30;44.31;102123.12;4670607;56;1141231;-85
2021/10/10 12:08:22;;;;;;;9.65;5.85;;;;;;;15.32;44.06;102112.73;4586104;56;1139128;-86
2021/10/10 12:13:27;;;;;;;12.33;7.33;;;;;;;15.42;45.24;102096.45;4616450;56;1139095;-85
2021/10/10 12:18:36;;;;;;;10.83;5.33;;;;;;;15.47;45.25;102093.43;4555736;56;1141116;-87
2021/10/10 12:23:43;;;;;;;10.68;7.20;;;;;;;15.53;43.73;102085.48;4595255;57;1141329;-86
2021/10/10 12:28:49;;;;;;;16.35;6.70;;;;;;;15.44;43.01;102069.66;4501195;58;1141074;-84
2021/10/10 12:33:59;;;;;;;14.05;8.23;;;;;;;15.49;44.05;102075.52;4560100;58;1141108;-84
2021/10/10 12:39:04;;;;;;;11.80;7.12;;;;;;;15.69;44.51;102060.73;4577065;57;1141168;-84
2021/10/10 12:44:15;;;;;;;21.37;12.60;;;;;;;15.78;44.19;102055.55;4581025;57;1141075;-85
2021/10/10 12:49:36;;;;;;;8.64;4.72;;;;;;;15.79;43.79;102055.08;4591886;57;1143115;-91
2021/10/10 12:54:47;;;;;;;10.45;5.72;;;;;;;15.85;42.95;102052.44;4569752;57;1138932;-82
2021/10/10 13:00:03;;;;;;;7.42;5.74;;;;;;;15.87;43.38;102046.51;4553492;57;1169658;-86
2021/10/10 13:05:04;;;;;;;10.13;5.08;;;;;;;16.01;43.33;102036.48;4562054;56;1138843;-89
2021/10/10 13:10:10;;;;;;;12.65;5.67;;;;;;;16.08;41.48;102034.18;4522059;57;1141095;-86
2021/10/10 13:15:16;;;;;;;8.57;5.73;;;;;;;16.17;43.43;102031.67;4546872;57;1141041;-89
2021/10/10 13:20:22;;;;;;;12.38;6.84;;;;;;;16.23;41.98;102025.48;4534146;57;1139188;-88
2021/10/10 13:25:28;;;;;;;9.25;5.15;;;;;;;16.14;41.63;102014.55;4599113;57;1140895;-86
2021/10/10 13:30:34;;;;;;;8.10;5.23;;;;;;;16.20;41.64;102011.88;4869750;57;1137051;-88
2021/10/10 13:35:44;;;;;;;10.47;6.63;;;;;;;16.19;42.28;102007.53;4993916;57;21173;-87
2021/10/10 13:40:52;;;;;;;6.43;4.30;;;;;;;16.23;42.24;102003.63;5003519;57;21139;-87
2021/10/10 13:45:59;;;;;;;11.33;5.50;;;;;;;16.28;41.35;102002.80;5002270;58;22367;-86
2021/10/10 13:51:07;;;;;;;11.27;8.17;;;;;;;16.32;41.43;101994.92;4902129;59;21202;-87
2021/10/10 13:56:13;;;;;;;18.40;12.10;;;;;;;16.40;41.65;101994.31;4830182;60;21830;-87
2021/10/10 14:01:19;;;;;;;10.13;7.53;;;;;;;16.41;41.23;101986.18;4932683;59;21198;-87
2021/10/10 14:06:25;;;;;;;14.60;7.23;;;;;;;16.41;41.56;101984.84;5097322;58;21200;-86
2021/10/10 14:11:31;;;;;;;7.00;5.83;;;;;;;16.43;41.46;101983.39;5097441;58;22542;-86
2021/10/10 14:16:38;;;;;;;14.10;6.73;;;;;;;16.37;40.99;101976.70;5097306;58;21147;-86
2021/10/10 14:21:44;;;;;;;10.83;5.70;;;;;;;16.33;41.02;101978.42;5097220;58;21195;-86
2021/10/10 14:26:50;;;;;;;9.97;5.40;;;;;;;16.29;41.06;101971.61;5097242;58;21192;-87
2021/10/10 14:31:57;;;;;;;10.47;5.43;;;;;;;16.25;40.87;101959.47;5097250;58;21272;-87
2021/10/10 14:37:04;;;;;;;7.37;4.60;;;;;;;16.32;41.28;101960.70;5097530;58;21681;-87
2021/10/10 14:42:13;;;;;;;6.40;4.67;;;;;;;16.40;41.05;101954.25;5097840;58;21194;-87
2021/10/10 14:52:29;;;;;;;11.87;6.10;;;;;;;16.25;41.22;101946.13;5193550;57;21256;-86
2021/10/10 14:57:38;;;;;;;8.97;5.73;;;;;;;16.23;41.80;101938.23;5201935;57;21242;-87
2021/10/10 15:02:43;;;;;;;9.73;6.07;;;;;;;16.78;43.02;101931.19;5201674;57;21241;-87
2021/10/10 15:07:50;;;;;;;10.83;5.37;;;;;;;18.57;42.08;101922.49;5201791;57;21375;-87
2021/10/10 15:12:57;;;;;;;20.00;10.80;;;;;;;19.53;38.78;101904.86;5201795;57;21167;-87
2021/10/10 15:18:03;;;;;;;21.77;10.23;;;;;;;18.68;38.08;101919.37;5201799;56;21176;-87
2021/10/10 15:23:09;;;;;;;40.73;17.37;;;;;;;17.86;38.92;101916.28;5201699;57;21752;-86
2021/10/10 15:28:15;;;;;;;26.63;12.00;;;;;;;17.23;39.55;101914.03;5201537;57;21171;-87
2021/10/10 15:33:23;;;;;;;26.73;12.00;;;;;;;16.89;40.97;101908.44;5201567;57;21191;-87
2021/10/10 15:38:30;;;;;;;20.97;11.07;;;;;;;17.40;41.60;101909.10;5201457;57;21518;-87
2021/10/10 15:43:38;;;;;;;32.07;15.43;;;;;;;18.09;40.65;101906.23;5198749;57;21538;-86
2021/10/10 15:48:56;;;;;;;;;;;;;;;;;;;;;
2021/10/10 15:53:59;;;;;;;81.13;32.43;;;;;;;17.38;40.69;101901.20;5221260;56;21179;-87
2021/10/10 15:59:30;;;;;;;;;;;;;;;;;;;;;
2021/10/10 16:04:27;;;;;;;53.63;27.20;;;;;;;16.16;42.99;101891.65;5218333;56;22509;-87
2021/10/10 16:09:49;;;;;;;;;;;;;;;;;;;;;
2021/10/10 16:15:02;;;;;;;;;;;;;;;;;;;;;
2021/10/10 16:20:15;;;;;;;;;;;;;;;;;;;;;
2021/10/10 16:25:29;;;;;;;;;;;;;;;;;;;;;
2021/10/10 16:30:38;;;;;;;40.53;10.53;;;;;;;13.54;47.84;101900.82;5222429;56;21488;-85
2021/10/10 16:36:21;;;;;;;;;;;;;;;;;;;;;
2021/10/10 16:47:16;;;;;;;;;;;;;;;;;;;;;
2021/10/10 17:19:03;;;;;;;77.63;31.10;;;;;;;11.84;54.21;101895.45;5193208;56;21065;-88
2021/10/10 17:24:18;;;;;;;103.87;38.27;;;;;;;11.81;54.67;101895.63;5201772;56;21166;-90
2021/10/10 17:29:36;;;;;;;99.03;38.97;;;;;;;11.72;54.98;101890.87;5205487;55;21105;-88
2021/10/10 17:34:59;;;;;;;109.13;41.80;;;;;;;11.61;55.45;101879.09;5204662;56;21155;-92
2021/10/10 17:40:09;;;;;;;99.97;37.83;;;;;;;11.48;55.58;101875.48;4984364;58;21215;-84
2021/10/10 17:45:18;;;;;;;94.67;36.57;;;;;;;11.38;55.77;101880.95;4920928;59;21196;-76
2021/10/10 17:50:24;;;;;;;67.60;30.13;;;;;;;11.24;55.95;101872.98;4908838;59;21211;-75
2021/10/10 17:55:34;;;;;;;51.07;23.57;;;;;;;10.99;56.05;101872.71;4880894;59;21126;-76
2021/10/10 18:11:23;;;;;;;42.62;20.82;;;;;;;10.25;57.59;101883.04;4942402;59;21120;-74
2021/10/10 18:16:26;;;;;;;40.00;16.70;;;;;;;10.05;57.89;101890.72;4902847;59;21573;-75
2021/10/10 18:21:32;;;;;;;27.43;11.97;;;;;;;10.01;58.69;101885.20;4904857;59;21173;-75
2021/10/10 18:26:38;;;;;;;27.83;10.37;;;;;;;9.97;58.47;101880.53;4900584;59;21247;-75
2021/10/10 18:31:47;;;;;;;39.27;9.50;;;;;;;9.81;58.42;101880.95;4908185;59;21181;-76
2021/10/10 18:36:51;;;;;;;25.87;8.60;;;;;;;9.71;58.91;101879.28;4938663;58;21170;-77
2021/10/10 18:41:58;;;;;;;19.67;10.20;;;;;;;9.63;59.22;101876.63;5022458;58;21160;-77
2021/10/10 18:47:04;;;;;;;24.23;9.23;;;;;;;9.66;59.76;101876.02;4939149;57;22162;-76
2021/10/10 18:52:12;;;;;;;33.17;15.60;;;;;;;9.68;59.74;101875.47;5062996;57;21195;-76
2021/10/10 18:57:18;;;;;;;36.87;18.00;;;;;;;9.58;59.61;101867.65;4989034;58;21543;-78
2021/10/10 19:02:31;;;;;;;35.17;19.03;;;;;;;9.49;59.79;101861.50;4957593;58;22053;-76
2021/10/10 19:07:33;;;;;;;29.97;15.37;;;;;;;9.34;59.84;101857.86;4951641;58;21254;-76
2021/10/10 19:12:39;;;;;;;24.40;10.47;;;;;;;9.15;60.06;101845.23;4954077;58;21211;-77
2021/10/10 19:17:45;;;;;;;26.53;10.63;;;;;;;9.06;60.61;101853.59;4910454;58;21745;-76
2021/10/10 19:22:50;;;;;;;30.60;12.60;;;;;;;8.96;60.49;101841.34;5062773;58;21099;-76
2021/10/10 19:27:55;;;;;;;27.07;13.60;;;;;;;8.85;60.81;101842.34;5015301;57;21150;-76
2021/10/10 19:33:03;;;;;;;43.87;19.37;;;;;;;8.81;60.95;101842.09;5104414;57;21210;-88
2021/10/10 19:38:09;;;;;;;39.50;18.50;;;;;;;8.67;60.98;101840.13;4988762;58;22129;-89
2021/10/10 19:43:15;;;;;;;37.17;17.40;;;;;;;8.69;61.53;101838.74;4618937;58;1134801;-88
2021/10/10 19:48:22;;;;;;;28.17;13.83;;;;;;;8.60;60.99;101832.58;4388621;59;1139457;-84
2021/10/10 19:53:28;;;;;;;19.60;10.80;;;;;;;8.53;61.24;101829.40;4314844;62;1139036;-87
2021/10/10 19:58:34;;;;;;;22.23;8.80;;;;;;;8.33;61.19;101826.84;3946630;63;1139070;-88
2021/10/10 20:03:45;;;;;;;21.67;9.93;;;;;;;8.08;61.54;101828.44;4026587;63;1136905;-89
2021/10/10 20:08:54;;;;;;;18.40;9.47;;;;;;;7.99;62.23;101819.63;4172600;61;1136958;-87
2021/10/10 20:14:04;;;;;;;16.57;8.80;;;;;;;7.99;62.23;101819.63;4394934;58;1136889;-86
2021/10/10 20:19:10;;;;;;;27.80;10.87;;;;;;;7.95;62.60;101818.91;4371980;59;1136928;-86
2021/10/10 20:24:16;;;;;;;26.27;9.83;;;;;;;7.90;62.63;101812.16;4372486;58;1143995;-83
2021/10/10 20:29:23;;;;;;;31.05;13.03;;;;;;;7.76;62.86;101805.74;4407855;58;1138331;-88
2021/10/10 20:34:29;;;;;;;23.90;10.43;;;;;;;7.76;62.86;101805.74;4372606;58;1139266;-87
2021/10/10 20:39:35;;;;;;;27.85;12.35;;;;;;;7.65;62.67;101804.49;4310044;59;1139063;-91
2021/10/10 20:44:41;;;;;;;37.93;17.42;;;;;;;7.47;62.97;101802.25;4448417;59;1139983;-90
2021/10/10 20:49:47;;;;;;;39.23;18.07;;;;;;;7.16;62.90;101796.61;4474426;58;1139235;-88
2021/10/10 20:54:53;;;;;;;40.47;18.00;;;;;;;7.02;63.35;101793.25;4426397;58;1139704;-89
2021/10/10 21:00:04;;;;;;;39.57;18.63;;;;;;;7.11;64.07;101785.42;4395126;58;1138979;-91
2021/10/10 21:10:38;;;;;;;42.67;19.27;;;;;;;7.06;63.54;101777.71;4323232;60;972118;-88
2021/10/10 21:16:00;;;;;;;41.23;21.40;;;;;;;6.61;64.23;101757.70;4106917;58;1137791;-85
2021/10/10 21:33:24;;;;;;;28.60;15.47;;;;;;;6.76;64.20;101748.77;5163548;55;47081;-87
2021/10/10 21:38:18;;;;;;;28.87;14.30;;;;;;;6.74;64.56;101739.63;4518274;57;1135005;-85
2021/10/10 21:43:23;;;;;;;26.60;13.40;;;;;;;6.77;64.63;101742.59;4472333;56;1139186;-86
2021/10/10 21:48:30;;;;;;;30.67;15.23;;;;;;;6.80;64.75;101729.33;4540455;56;1139095;-86
2021/10/10 21:53:44;;;;;;;42.37;16.23;;;;;;;6.75;64.55;101736.55;4507854;57;1139052;-85
2021/10/10 21:58:49;;;;;;;33.53;16.50;;;;;;;6.72;64.70;101723.09;4285888;58;1138975;-87
2021/10/10 22:03:58;;;;;;;46.37;16.43;;;;;;;6.69;64.35;101724.08;4531767;56;1138951;-86
2021/10/10 22:09:04;;;;;;;29.90;15.63;;;;;;;6.54;64.45;101722.09;4592316;55;1138926;-85
2021/10/10 22:14:10;;;;;;;27.73;13.43;;;;;;;6.48;64.38;101718.84;4507583;57;1139227;-85
2021/10/10 22:19:17;;;;;;;26.23;13.33;;;;;;;6.33;64.55;101715.93;4535406;57;1139112;-86
